Time;durP1;ratioP1;P1;durP2;ratioP2;P2;SDS_P1;SDS_P2;PMS_P1;PMS_P2;Temp;Humidity;BMP_temperature;BMP_pressure;BME280_temperature;BME280_humidity;BME280_pressure;Samples;Min_cycle;Max_cycle;Signal;HPM_P1;HPM_P2
2023/01/05 00:01:45;;;;;;;24.83;4.68;;;9.80;99.90;;;;;;5075553;28;20098;-72
2023/01/05 00:04:11;;;;;;;32.10;5.30;;;9.80;99.90;;;;;;5075509;28;20543;-72
2023/01/05 00:06:38;;;;;;;27.42;4.38;;;9.80;99.90;;;;;;5075145;28;20041;-71
2023/01/05 00:09:05;;;;;;;29.55;5.28;;;9.80;99.90;;;;;;5075180;28;20037;-72
2023/01/05 00:22:48;;;;;;;25.02;4.45;;;9.80;99.90;;;;;;5075169;28;20040;-72
2023/01/05 00:25:36;;;;;;;26.77;4.85;;;9.80;99.90;;;;;;5058234;28;20033;-72
2023/01/05 00:28:01;;;;;;;27.75;4.25;;;9.80;99.90;;;;;;5074809;28;20033;-72
2023/01/05 00:30:30;;;;;;;28.27;4.72;;;9.80;99.90;;;;;;5075039;28;20124;-72
2023/01/05 00:32:56;;;;;;;30.20;5.40;;;9.80;99.90;;;;;;5075569;28;20053;-71
2023/01/05 00:35:22;;;;;;;23.83;4.55;;;9.80;99.90;;;;;;5074972;28;20036;-72
2023/01/05 00:37:48;;;;;;;24.77;4.15;;;9.90;99.90;;;;;;5074864;28;20078;-71
2023/01/05 00:40:17;;;;;;;26.15;4.60;;;9.90;99.90;;;;;;5074633;28;20040;-72
2023/01/05 00:42:43;;;;;;;27.42;4.57;;;9.90;99.90;;;;;;5074650;28;20058;-72
2023/01/05 00:45:11;;;;;;;23.80;4.05;;;9.90;99.90;;;;;;5074469;28;20070;-71
2023/01/05 00:47:37;;;;;;;25.98;4.93;;;9.90;99.90;;;;;;5074437;28;20033;-72
2023/01/05 00:50:04;;;;;;;30.00;4.88;;;9.90;99.90;;;;;;5074388;28;20035;-72
2023/01/05 00:52:29;;;;;;;28.40;5.13;;;9.90;99.90;;;;;;5074378;28;20085;-72
2023/01/05 00:54:56;;;;;;;22.55;4.13;;;10.00;99.90;;;;;;5074723;28;20054;-72
2023/01/05 00:57:22;;;;;;;28.02;4.47;;;10.00;99.90;;;;;;5074632;28;20127;-72
2023/01/05 00:59:47;;;;;;;27.05;5.05;;;10.00;99.90;;;;;;5074509;28;20492;-72
2023/01/05 01:02:13;;;;;;;26.33;5.32;;;10.00;99.90;;;;;;5074403;28;20080;-72
2023/01/05 01:04:39;;;;;;;22.52;4.20;;;10.00;99.90;;;;;;5074180;28;20492;-72
2023/01/05 01:07:05;;;;;;;32.70;5.20;;;10.00;99.90;;;;;;5075614;28;20033;-72
2023/01/05 01:09:31;;;;;;;24.33;3.80;;;10.00;99.90;;;;;;5074368;28;20405;-72
2023/01/05 01:11:57;;;;;;;26.98;5.18;;;10.00;99.90;;;;;;5074098;28;20044;-72
2023/01/05 01:14:23;;;;;;;25.25;4.32;;;10.00;99.90;;;;;;5074048;28;20032;-72
2023/01/05 01:16:49;;;;;;;26.00;5.03;;;10.00;99.90;;;;;;5074159;28;20037;-71
2023/01/05 01:19:17;;;;;;;26.85;5.07;;;10.00;99.90;;;;;;5074009;28;20540;-72
2023/01/05 01:21:43;;;;;;;18.40;3.92;;;10.00;99.90;;;;;;5074080;28;20490;-72
2023/01/05 01:24:15;;;;;;;23.25;4.78;;;10.00;99.90;;;;;;5073822;28;20029;-72
2023/01/05 01:26:40;;;;;;;26.27;4.88;;;10.00;99.90;;;;;;5073752;28;20074;-71
2023/01/05 01:29:06;;;;;;;26.65;4.75;;;10.00;99.90;;;;;;5073719;28;20125;-72
2023/01/05 01:31:34;;;;;;;26.25;4.57;;;10.00;99.90;;;;;;5073690;28;20033;-72
2023/01/05 01:34:00;;;;;;;29.38;5.18;;;10.00;99.90;;;;;;5073619;28;20079;-72
2023/01/05 01:36:26;;;;;;;26.48;4.82;;;10.00;99.90;;;;;;5073872;28;20063;-72
2023/01/05 01:38:51;;;;;;;28.10;5.03;;;10.00;99.90;;;;;;5073477;28;20476;-72
2023/01/05 01:41:17;;;;;;;25.20;4.85;;;10.00;99.90;;;;;;5073849;28;20048;-72
2023/01/05 01:43:54;;;;;;;24.67;4.55;;;10.00;99.90;;;;;;5073399;28;20509;-72
2023/01/05 01:46:21;;;;;;;23.92;5.30;;;10.00;99.90;;;;;;5073399;28;20032;-72
2023/01/05 01:48:57;;;;;;;27.45;4.55;;;10.00;99.90;;;;;;5073144;28;20054;-72
2023/01/05 01:51:34;;;;;;;23.15;4.28;;;10.10;99.90;;;;;;5073324;28;20036;-72
2023/01/05 01:54:04;;;;;;;26.67;5.97;;;10.10;99.90;;;;;;5073245;28;20123;-72
2023/01/05 01:56:35;;;;;;;29.25;4.65;;;10.10;99.90;;;;;;5072830;28;20033;-71
2023/01/05 01:59:01;;;;;;;26.13;5.05;;;10.10;99.90;;;;;;5072964;28;20050;-72
2023/01/05 02:01:27;;;;;;;25.58;4.22;;;10.10;99.90;;;;;;5073080;28;20044;-72
2023/01/05 02:03:54;;;;;;;25.65;5.28;;;10.10;99.90;;;;;;5072963;28;20116;-72
2023/01/05 02:06:19;;;;;;;21.83;4.40;;;10.10;99.90;;;;;;5072997;28;20089;-72
2023/01/05 02:08:46;;;;;;;27.42;5.28;;;10.10;99.90;;;;;;5072868;28;20040;-72
2023/01/05 02:11:36;;;;;;;28.02;4.75;;;10.10;99.90;;;;;;5072885;28;20072;-72
2023/01/05 02:14:15;;;;;;;20.65;3.95;;;10.10;99.90;;;;;;5073124;28;20052;-72
2023/01/05 02:16:47;;;;;;;23.55;4.97;;;10.10;99.90;;;;;;5072718;28;20493;-71
2023/01/05 02:19:46;;;;;;;26.87;4.83;;;10.10;99.90;;;;;;5073007;28;20048;-72
2023/01/05 02:22:36;;;;;;;18.80;4.10;;;10.00;99.90;;;;;;5072636;28;20048;-72
2023/01/05 02:25:13;;;;;;;26.42;4.88;;;10.00;99.90;;;;;;5055972;28;20405;-72
2023/01/05 02:28:04;;;;;;;19.08;3.95;;;10.00;99.90;;;;;;5072530;28;20037;-72
2023/01/05 02:31:03;;;;;;;25.88;4.72;;;10.00;99.90;;;;;;5072798;28;20048;-72
2023/01/05 02:33:39;;;;;;;22.17;3.92;;;10.00;99.90;;;;;;5072745;28;20109;-72
2023/01/05 02:36:42;;;;;;;23.48;4.93;;;10.00;99.90;;;;;;5072480;28;20539;-72
2023/01/05 02:39:29;;;;;;;27.17;4.15;;;10.10;99.90;;;;;;5072381;28;20416;-72
2023/01/05 02:42:11;;;;;;;26.95;4.63;;;10.00;99.90;;;;;;5072288;28;20052;-71
2023/01/05 02:44:37;;;;;;;29.30;4.75;;;10.00;99.90;;;;;;5072353;28;20028;-72
2023/01/05 02:47:23;;;;;;;23.15;4.63;;;10.00;99.90;;;;;;5072213;28;20097;-72
2023/01/05 02:49:49;;;;;;;22.20;4.78;;;9.90;99.90;;;;;;5072232;28;20516;-72
2023/01/05 02:52:15;;;;;;;26.63;4.50;;;9.90;99.90;;;;;;5072457;28;20045;-72
2023/01/05 02:54:48;;;;;;;28.13;6.07;;;9.90;99.90;;;;;;5073425;28;20039;-72
2023/01/05 02:57:18;;;;;;;27.58;4.43;;;9.90;99.90;;;;;;5072119;28;20086;-72
2023/01/05 02:59:50;;;;;;;23.98;4.95;;;9.90;99.90;;;;;;5072127;28;20044;-72
2023/01/05 03:02:26;;;;;;;24.88;4.57;;;9.90;99.90;;;;;;5072288;28;20115;-71
2023/01/05 03:05:03;;;;;;;25.75;4.93;;;9.90;99.90;;;;;;5072079;28;20028;-72
2023/01/05 03:07:32;;;;;;;26.13;5.32;;;9.80;99.90;;;;;;5071984;28;20044;-72
2023/01/05 03:13:39;;;;;;;22.42;3.88;;;9.80;99.90;;;;;;5071081;28;20048;-72
2023/01/05 03:15:33;;;;;;;25.48;4.55;;;9.80;99.90;;;;;;5071788;28;20425;-72
2023/01/05 03:18:19;;;;;;;23.15;4.25;;;9.80;99.90;;;;;;5072017;28;20547;-72
2023/01/05 03:20:49;;;;;;;28.35;5.70;;;9.80;99.90;;;;;;5071928;28;20044;-72
2023/01/05 03:37:51;;;;;;;28.92;5.38;;;9.70;99.90;;;;;;5071644;28;20036;-72
2023/01/05 03:40:21;;;;;;;25.38;4.50;;;9.70;99.90;;;;;;5071694;28;20048;-72
2023/01/05 03:42:47;;;;;;;22.73;4.30;;;9.70;99.90;;;;;;5071590;28;20079;-72
2023/01/05 03:45:15;;;;;;;27.30;4.78;;;9.70;99.90;;;;;;5071846;28;20091;-71
2023/01/05 03:47:40;;;;;;;32.90;5.60;;;9.80;99.90;;;;;;5071791;28;20044;-72
2023/01/05 03:50:06;;;;;;;29.30;5.15;;;9.80;99.90;;;;;;5071488;28;20449;-72
2023/01/05 03:52:32;;;;;;;23.90;5.00;;;9.80;99.90;;;;;;5071779;28;20044;-73
2023/01/05 03:54:58;;;;;;;25.95;5.32;;;9.80;99.90;;;;;;5071499;28;20052;-72
2023/01/05 03:57:23;;;;;;;27.60;5.28;;;9.80;99.90;;;;;;5071695;28;20043;-72
2023/01/05 03:59:49;;;;;;;32.22;4.97;;;9.80;99.90;;;;;;5071479;28;20541;-72
2023/01/05 04:02:14;;;;;;;27.33;4.82;;;9.90;99.90;;;;;;5071348;28;20048;-72
2023/01/05 04:04:40;;;;;;;30.83;5.57;;;9.80;99.90;;;;;;5071376;28;20098;-72
2023/01/05 04:07:06;;;;;;;25.17;5.18;;;9.80;99.90;;;;;;5072055;28;20048;-72
2023/01/05 04:09:32;;;;;;;31.00;4.60;;;9.80;99.90;;;;;;5071362;28;20047;-72
2023/01/05 04:11:59;;;;;;;26.30;5.03;;;9.80;99.90;;;;;;5071356;28;20040;-71
2023/01/05 04:14:24;;;;;;;29.77;5.05;;;9.80;99.90;;;;;;5071615;28;20059;-72
2023/01/05 04:16:50;;;;;;;28.70;4.57;;;9.80;99.90;;;;;;5071490;28;20397;-71
2023/01/05 04:19:15;;;;;;;28.75;5.60;;;9.80;99.90;;;;;;5071304;28;20401;-72
2023/01/05 04:21:41;;;;;;;35.60;6.03;;;9.90;99.90;;;;;;5074188;28;20044;-72
2023/01/05 04:24:09;;;;;;;27.25;4.90;;;9.80;99.90;;;;;;5076275;28;20040;-71
2023/01/05 04:26:36;;;;;;;25.00;5.07;;;9.90;99.90;;;;;;5074900;28;20040;-71
2023/01/05 04:29:03;;;;;;;24.50;5.03;;;9.80;99.90;;;;;;5075143;28;20182;-72
2023/01/05 04:31:28;;;;;;;25.92;4.43;;;9.90;99.90;;;;;;5075125;28;20037;-72
2023/01/05 04:33:54;;;;;;;29.15;5.05;;;9.90;99.90;;;;;;5074776;28;20174;-72
2023/01/05 04:36:19;;;;;;;27.48;5.00;;;9.90;99.90;;;;;;5074979;28;20165;-72
2023/01/05 04:38:45;;;;;;;24.70;4.78;;;9.90;99.90;;;;;;5074941;28;20048;-72
2023/01/05 04:41:11;;;;;;;26.70;4.70;;;9.90;99.90;;;;;;5058029;28;20481;-72
2023/01/05 04:43:36;;;;;;;27.90;5.25;;;9.90;99.90;;;;;;5074535;28;20043;-72
2023/01/05 04:46:02;;;;;;;26.08;5.38;;;9.90;99.90;;;;;;5074570;28;20416;-72
2023/01/05 04:48:28;;;;;;;28.50;4.53;;;9.90;99.90;;;;;;5074620;28;20119;-72
2023/01/05 04:50:54;;;;;;;26.20;4.43;;;9.90;99.90;;;;;;5074786;28;20493;-72
2023/01/05 04:53:22;;;;;;;30.75;4.68;;;9.90;99.90;;;;;;5074389;28;20048;-71
2023/01/05 04:55:47;;;;;;;27.58;4.75;;;9.90;99.90;;;;;;5074622;28;20052;-72
2023/01/05 04:58:13;;;;;;;27.15;4.68;;;9.90;99.90;;;;;;5057891;28;20047;-72
2023/01/05 05:00:39;;;;;;;32.05;5.22;;;9.90;99.90;;;;;;5074272;28;20052;-71
2023/01/05 05:03:04;;;;;;;29.02;4.63;;;9.90;99.90;;;;;;5074182;28;20043;-72
2023/01/05 05:05:30;;;;;;;30.58;5.70;;;9.90;99.90;;;;;;5074428;28;20036;-72
2023/01/05 05:07:55;;;;;;;28.75;5.05;;;9.90;99.90;;;;;;5074140;28;20083;-72
2023/01/05 05:10:21;;;;;;;24.25;4.55;;;9.90;99.90;;;;;;5074086;28;20055;-72
2023/01/05 05:12:46;;;;;;;23.35;4.53;;;9.90;99.90;;;;;;5074105;28;20048;-72
2023/01/05 05:15:12;;;;;;;23.50;3.90;;;9.90;99.90;;;;;;5074278;28;20170;-72
2023/01/05 05:17:38;;;;;;;23.55;4.38;;;9.90;99.90;;;;;;5074205;28;20052;-72
2023/01/05 05:20:04;;;;;;;29.48;4.88;;;9.90;99.90;;;;;;5074035;28;20037;-72
2023/01/05 05:22:30;;;;;;;23.25;4.18;;;9.90;99.90;;;;;;5074037;28;20125;-72
2023/01/05 05:24:55;;;;;;;23.65;4.28;;;9.90;99.90;;;;;;5073876;28;20493;-72
2023/01/05 05:27:21;;;;;;;23.05;4.30;;;9.90;99.90;;;;;;5073783;28;20120;-72
2023/01/05 05:29:47;;;;;;;30.33;4.82;;;9.90;99.90;;;;;;5073745;28;20044;-72
2023/01/05 05:32:12;;;;;;;27.05;5.13;;;9.90;99.90;;;;;;5072999;28;20044;-72
2023/01/05 05:34:38;;;;;;;24.27;4.20;;;9.90;99.90;;;;;;5073930;28;20036;-72
2023/01/05 05:37:03;;;;;;;29.10;4.82;;;9.90;99.90;;;;;;5073727;28;20549;-71
2023/01/05 05:39:29;;;;;;;26.20;4.72;;;9.90;99.90;;;;;;5073820;28;20063;-72
2023/01/05 05:41:55;;;;;;;27.38;4.78;;;9.90;99.90;;;;;;5074938;28;20490;-72
2023/01/05 05:44:20;;;;;;;25.23;4.30;;;9.90;99.90;;;;;;5073420;28;20033;-72
2023/01/05 05:46:46;;;;;;;25.42;4.30;;;9.90;99.90;;;;;;5056715;28;20040;-72
2023/01/05 05:49:11;;;;;;;28.33;4.88;;;9.90;99.90;;;;;;5073198;28;20052;-72
2023/01/05 05:51:37;;;;;;;28.58;5.07;;;9.90;99.90;;;;;;5073560;28;20040;-72
2023/01/05 05:54:02;;;;;;;26.95;4.70;;;9.90;99.90;;;;;;5073230;28;20052;-72
2023/01/05 05:56:28;;;;;;;25.33;4.65;;;9.90;99.90;;;;;;5056525;28;20033;-71
2023/01/05 05:58:54;;;;;;;24.17;4.00;;;9.90;99.90;;;;;;5074423;28;20115;-72
2023/01/05 06:01:19;;;;;;;23.63;4.72;;;9.90;99.90;;;;;;5074312;28;20032;-72
2023/01/05 06:03:45;;;;;;;26.08;4.65;;;9.90;99.90;;;;;;5072999;28;20037;-72
2023/01/05 06:06:11;;;;;;;21.55;4.10;;;9.90;99.90;;;;;;5073010;28;20055;-72
2023/01/05 06:08:36;;;;;;;23.27;4.78;;;9.90;99.90;;;;;;5072903;28;20186;-72
2023/01/05 06:11:02;;;;;;;21.52;4.50;;;9.90;99.90;;;;;;5074664;28;20035;-72
2023/01/05 06:13:27;;;;;;;23.83;4.50;;;9.90;99.90;;;;;;5072875;28;20040;-72
2023/01/05 06:15:53;;;;;;;26.98;4.40;;;9.90;99.90;;;;;;5072833;28;20048;-72
2023/01/05 06:18:19;;;;;;;29.63;5.45;;;9.80;99.90;;;;;;5072720;28;20047;-71
2023/01/05 06:20:45;;;;;;;28.17;4.78;;;9.80;99.90;;;;;;5072748;28;20119;-72
2023/01/05 06:23:10;;;;;;;30.88;5.13;;;9.80;99.90;;;;;;5072784;28;20553;-72
2023/01/05 06:25:36;;;;;;;21.27;4.15;;;9.80;99.90;;;;;;5072660;28;20036;-72
2023/01/05 06:28:02;;;;;;;36.20;4.78;;;9.80;99.90;;;;;;5072526;28;20041;-72
2023/01/05 06:30:27;;;;;;;29.52;4.32;;;9.70;99.90;;;;;;5056185;28;20040;-72
2023/01/05 06:32:54;;;;;;;22.33;3.88;;;9.70;99.90;;;;;;5072526;28;20406;-72
2023/01/05 06:35:19;;;;;;;23.42;3.92;;;9.70;99.90;;;;;;5072735;28;20174;-72
2023/01/05 06:37:45;;;;;;;19.75;3.90;;;9.70;99.90;;;;;;5072359;28;20102;-72
2023/01/05 06:40:11;;;;;;;21.90;4.47;;;9.70;99.90;;;;;;5072391;28;20051;-72
2023/01/05 06:42:37;;;;;;;22.80;4.70;;;9.70;99.90;;;;;;5055612;28;20127;-72
2023/01/05 06:45:05;;;;;;;29.63;4.60;;;9.70;99.90;;;;;;5072134;28;20028;-71
2023/01/05 06:47:30;;;;;;;27.10;5.18;;;9.70;99.90;;;;;;5072208;28;20527;-72
2023/01/05 06:49:56;;;;;;;24.58;4.65;;;9.70;99.90;;;;;;5072367;28;20080;-72
2023/01/05 06:52:22;;;;;;;26.50;4.22;;;9.60;99.90;;;;;;5072215;28;20417;-72
2023/01/05 06:54:47;;;;;;;27.92;4.10;;;9.70;99.90;;;;;;5072394;28;20051;-72
2023/01/05 06:57:13;;;;;;;25.15;4.43;;;9.70;99.90;;;;;;5072357;28;20040;-72
2023/01/05 06:59:39;;;;;;;23.30;4.60;;;9.60;99.90;;;;;;5072134;28;20094;-72
2023/01/05 07:02:11;;;;;;;25.65;4.20;;;9.70;99.90;;;;;;5071972;28;20040;-72
2023/01/05 07:04:37;;;;;;;25.48;4.82;;;9.60;99.90;;;;;;5072113;28;20041;-72
2023/01/05 07:07:02;;;;;;;23.48;4.45;;;9.60;99.90;;;;;;5071956;28;20075;-72
2023/01/05 07:09:28;;;;;;;27.33;5.07;;;9.70;99.90;;;;;;5072215;28;20043;-72
2023/01/05 07:11:53;;;;;;;25.20;4.28;;;9.70;99.90;;;;;;5071970;28;20516;-72
2023/01/05 07:14:19;;;;;;;27.85;5.18;;;9.70;99.90;;;;;;5071920;28;20040;-72
2023/01/05 07:16:44;;;;;;;28.13;4.70;;;9.70;99.90;;;;;;5071803;28;20040;-71
2023/01/05 07:19:10;;;;;;;27.10;4.03;;;9.70;99.90;;;;;;5072170;28;20044;-72
2023/01/05 07:21:36;;;;;;;36.05;5.60;;;9.70;99.90;;;;;;5071859;28;20516;-72
2023/01/05 07:24:02;;;;;;;27.92;4.28;;;9.70;99.90;;;;;;5072976;28;20123;-72
2023/01/05 07:26:28;;;;;;;31.98;5.45;;;9.70;99.90;;;;;;5071772;28;20069;-72
2023/01/05 07:28:53;;;;;;;23.30;4.35;;;9.70;99.90;;;;;;5071767;28;20037;-72
2023/01/05 07:31:19;;;;;;;25.02;5.15;;;9.70;99.90;;;;;;5071793;28;20044;-72
2023/01/05 07:33:45;;;;;;;24.42;4.00;;;9.70;99.90;;;;;;5071723;28;20036;-72
2023/01/05 07:36:11;;;;;;;22.15;4.72;;;9.80;99.90;;;;;;5071702;28;20044;-72
2023/01/05 07:38:36;;;;;;;26.52;4.47;;;9.70;99.90;;;;;;5073144;28;20043;-72
2023/01/05 07:41:02;;;;;;;23.23;4.22;;;9.80;99.90;;;;;;5071876;28;20093;-73
2023/01/05 07:43:28;;;;;;;27.52;5.05;;;9.80;99.90;;;;;;5071714;28;20051;-73
2023/01/05 07:46:01;;;;;;;23.65;4.30;;;9.80;99.90;;;;;;5071607;28;20455;-72
2023/01/05 07:48:27;;;;;;;24.33;4.35;;;9.80;99.90;;;;;;5071461;28;20457;-73
2023/01/05 07:51:01;;;;;;;24.02;4.10;;;9.80;99.90;;;;;;5071534;28;20440;-73
2023/01/05 07:53:29;;;;;;;21.17;3.97;;;9.80;99.90;;;;;;5071536;28;20047;-73
2023/01/05 07:55:59;;;;;;;26.88;4.00;;;9.80;99.90;;;;;;5075043;28;20055;-72
2023/01/05 07:58:26;;;;;;;23.40;3.70;;;9.80;99.90;;;;;;5075414;28;20048;-73
2023/01/05 08:00:51;;;;;;;21.67;3.45;;;9.80;99.90;;;;;;5075463;28;20079;-72
2023/01/05 08:03:17;;;;;;;22.90;3.92;;;9.80;99.90;;;;;;5075410;28;20076;-73
2023/01/05 08:05:43;;;;;;;23.20;3.53;;;9.80;99.90;;;;;;5075352;28;20028;-73
2023/01/05 08:08:08;;;;;;;24.50;4.15;;;9.80;99.90;;;;;;5075475;28;20036;-72
2023/01/05 08:10:36;;;;;;;24.08;4.05;;;9.80;99.90;;;;;;5075270;28;20037;-73
2023/01/05 08:15:52;;;;;;;32.33;4.22;;;9.80;99.90;;;;;;5075136;28;20045;-72
2023/01/05 08:18:19;;;;;;;21.30;3.22;;;9.80;99.90;;;;;;5058428;28;20048;-72
2023/01/05 08:20:55;;;;;;;25.55;4.15;;;9.70;99.90;;;;;;5075060;28;20041;-72
2023/01/05 08:23:21;;;;;;;22.42;4.38;;;9.80;99.90;;;;;;5074899;28;20043;-73
2023/01/05 08:25:47;;;;;;;27.23;4.65;;;9.80;99.90;;;;;;5074960;28;20040;-73
2023/01/05 08:28:12;;;;;;;26.17;4.07;;;9.80;99.90;;;;;;5075114;28;20040;-73
2023/01/05 08:30:38;;;;;;;19.75;3.78;;;9.80;99.90;;;;;;5074902;28;20489;-73
2023/01/05 08:33:04;;;;;;;19.67;3.95;;;9.80;99.90;;;;;;5076503;28;20036;-72
2023/01/05 08:35:30;;;;;;;21.75;3.88;;;9.80;99.90;;;;;;5074910;28;20081;-73
2023/01/05 08:37:55;;;;;;;18.95;4.00;;;9.70;99.90;;;;;;5074936;28;20075;-72
2023/01/05 08:40:21;;;;;;;21.23;3.30;;;9.80;99.90;;;;;;5074748;28;20040;-73
2023/01/05 08:42:47;;;;;;;25.23;3.83;;;9.80;99.90;;;;;;5074783;28;20040;-73
2023/01/05 08:45:16;;;;;;;22.58;4.13;;;9.80;99.90;;;;;;5074568;28;20444;-72
2023/01/05 08:47:42;;;;;;;24.42;3.78;;;9.80;99.90;;;;;;5074474;28;20039;-72
2023/01/05 08:50:09;;;;;;;21.35;4.15;;;9.80;99.90;;;;;;5074355;28;20045;-72
2023/01/05 08:52:36;;;;;;;16.17;3.55;;;9.80;99.90;;;;;;5074728;28;20033;-72
2023/01/05 08:55:02;;;;;;;19.67;3.60;;;9.80;99.90;;;;;;5074646;28;20075;-72
2023/01/05 08:57:28;;;;;;;21.85;3.78;;;9.80;99.90;;;;;;5074344;28;20079;-72
2023/01/05 08:59:54;;;;;;;20.80;4.18;;;9.80;99.90;;;;;;5058269;28;20106;-72
2023/01/05 09:02:19;;;;;;;22.58;3.97;;;9.80;99.90;;;;;;5074514;28;20505;-73
2023/01/05 09:04:45;;;;;;;23.98;3.67;;;9.80;99.90;;;;;;5074456;28;20044;-73
2023/01/05 09:07:10;;;;;;;24.33;4.30;;;9.80;99.90;;;;;;5072776;28;20102;-73
2023/01/05 09:09:36;;;;;;;19.20;3.95;;;9.80;99.90;;;;;;5074179;28;20037;-73
2023/01/05 09:12:02;;;;;;;24.27;3.95;;;9.90;99.90;;;;;;5074370;28;20051;-73
2023/01/05 09:14:27;;;;;;;22.25;3.80;;;9.90;99.90;;;;;;5074076;28;20447;-74
2023/01/05 09:16:53;;;;;;;24.17;3.67;;;9.80;99.90;;;;;;5074146;28;20063;-73
2023/01/05 09:19:18;;;;;;;19.25;3.40;;;9.90;99.90;;;;;;5074015;28;20083;-73
2023/01/05 09:21:44;;;;;;;23.75;4.22;;;9.90;99.90;;;;;;5074123;28;20043;-73
2023/01/05 09:24:11;;;;;;;21.15;3.70;;;9.80;99.90;;;;;;5073947;28;20053;-73
2023/01/05 09:26:37;;;;;;;27.08;4.55;;;9.90;99.90;;;;;;5073852;28;20158;-73
2023/01/05 09:29:03;;;;;;;27.67;4.78;;;9.90;99.90;;;;;;5073802;28;20119;-74
2023/01/05 09:31:28;;;;;;;26.63;3.97;;;9.90;99.90;;;;;;5073719;28;20036;-73
2023/01/05 09:33:56;;;;;;;23.95;4.32;;;9.90;99.90;;;;;;5073741;28;20040;-74
2023/01/05 09:36:23;;;;;;;28.58;5.13;;;9.90;99.90;;;;;;5073625;28;20087;-74
2023/01/05 09:38:50;;;;;;;27.02;4.07;;;9.90;99.90;;;;;;5073513;28;20041;-73
2023/01/05 09:41:26;;;;;;;20.85;4.03;;;10.00;99.90;;;;;;5073797;28;20051;-74
2023/01/05 09:43:56;;;;;;;24.13;4.07;;;10.00;99.90;;;;;;5074661;28;20036;-74
2023/01/05 09:46:38;;;;;;;26.17;4.57;;;10.00;99.90;;;;;;5073473;28;20044;-73
2023/01/05 09:49:09;;;;;;;21.55;4.13;;;10.00;99.90;;;;;;5073515;28;20121;-73
2023/01/05 09:51:35;;;;;;;23.42;3.70;;;10.00;99.90;;;;;;5056658;28;20520;-74
2023/01/05 09:54:01;;;;;;;25.10;4.15;;;10.00;99.90;;;;;;5073305;28;20040;-77
2023/01/05 09:56:29;;;;;;;24.80;4.40;;;10.00;99.90;;;;;;5073573;28;20097;-74
2023/01/05 09:59:15;;;;;;;21.00;3.53;;;10.00;99.90;;;;;;5073203;28;20123;-74
2023/01/05 10:01:42;;;;;;;22.08;4.03;;;10.00;99.90;;;;;;5073452;28;20059;-74
2023/01/05 10:04:15;;;;;;;22.30;3.88;;;10.00;99.90;;;;;;5073113;28;20041;-74
2023/01/05 10:06:45;;;;;;;25.80;4.43;;;10.00;99.90;;;;;;5056660;28;20511;-74
2023/01/05 10:09:18;;;;;;;23.20;3.72;;;10.10;99.90;;;;;;5073279;28;20072;-74
2023/01/05 10:14:45;;;;;;;28.27;3.90;;;10.00;99.90;;;;;;5073191;28;19916;-74
2023/01/05 10:17:18;;;;;;;21.83;4.13;;;10.00;99.90;;;;;;5072902;28;20040;-73
2023/01/05 10:19:46;;;;;;;29.98;4.90;;;10.00;99.90;;;;;;5072410;28;20043;-74
2023/01/05 10:22:41;;;;;;;26.00;3.88;;;10.00;99.90;;;;;;5072950;28;20055;-74
2023/01/05 10:25:06;;;;;;;20.65;3.55;;;10.10;99.90;;;;;;5056101;28;20115;-73
2023/01/05 10:27:53;;;;;;;23.65;3.85;;;10.10;99.90;;;;;;5072602;28;20126;-73
2023/01/05 10:30:39;;;;;;;24.00;4.10;;;10.10;99.90;;;;;;5072650;28;20068;-74
2023/01/05 10:33:31;;;;;;;21.00;3.50;;;10.10;99.90;;;;;;5056157;28;20159;-74
2023/01/05 10:36:13;;;;;;;16.13;3.40;;;10.10;99.90;;;;;;5072576;28;20078;-71
2023/01/05 10:39:16;;;;;;;18.23;3.05;;;10.10;99.90;;;;;;5072368;28;20116;-71
2023/01/05 10:41:53;;;;;;;16.27;3.63;;;10.10;99.90;;;;;;5072433;28;20045;-71
2023/01/05 10:44:51;;;;;;;19.92;2.88;;;10.10;99.90;;;;;;5072301;28;20048;-71
2023/01/05 10:47:16;;;;;;;19.08;3.50;;;10.10;99.90;;;;;;5072301;28;20090;-71
2023/01/05 10:49:45;;;;;;;16.25;2.90;;;10.10;99.90;;;;;;5055695;28;20033;-71
2023/01/05 10:52:14;;;;;;;20.88;4.35;;;10.20;99.90;;;;;;5072477;28;20080;-71
2023/01/05 10:54:58;;;;;;;12.98;2.67;;;10.20;99.90;;;;;;5055440;28;20044;-71
2023/01/05 10:57:32;;;;;;;20.02;3.30;;;10.20;99.90;;;;;;5072114;28;20572;-71
2023/01/05 11:00:14;;;;;;;19.92;3.45;;;10.20;99.90;;;;;;5055441;28;20213;-71
2023/01/05 11:02:46;;;;;;;18.67;3.00;;;10.20;99.90;;;;;;5055313;28;20044;-71
2023/01/05 11:05:29;;;;;;;25.98;3.70;;;10.20;99.90;;;;;;5072288;28;20127;-71
2023/01/05 11:07:59;;;;;;;21.65;4.55;;;10.20;99.90;;;;;;5072269;28;20036;-71
2023/01/05 11:10:30;;;;;;;15.65;3.35;;;10.30;99.90;;;;;;5072049;28;20047;-71
2023/01/05 11:13:01;;;;;;;16.77;3.80;;;10.30;99.90;;;;;;5071964;28;20045;-71
2023/01/05 11:15:29;;;;;;;16.25;2.65;;;10.30;99.90;;;;;;5071968;28;20390;-71
2023/01/05 11:17:55;;;;;;;20.27;2.92;;;10.30;99.90;;;;;;5072153;28;20040;-72
2023/01/05 11:20:21;;;;;;;26.75;4.45;;;10.30;99.90;;;;;;5072160;28;20459;-71
2023/01/05 11:22:47;;;;;;;15.52;2.70;;;10.30;99.90;;;;;;5072063;28;20037;-71
2023/01/05 11:25:30;;;;;;;15.55;3.83;;;10.30;99.90;;;;;;5071872;28;20401;-71
2023/01/05 11:28:09;;;;;;;18.13;2.93;;;10.40;99.90;;;;;;5055134;28;20037;-71
2023/01/05 11:30:36;;;;;;;22.15;3.42;;;10.40;99.90;;;;;;5071217;28;20051;-71
2023/01/05 11:33:02;;;;;;;22.45;3.45;;;10.30;99.90;;;;;;5071981;28;20040;-71
2023/01/05 11:35:36;;;;;;;21.08;3.83;;;10.30;99.90;;;;;;5055057;28;20103;-71
2023/01/05 11:38:01;;;;;;;31.30;4.32;;;10.30;99.90;;;;;;5054940;28;20076;-71
2023/01/05 11:40:32;;;;;;;25.63;4.70;;;10.30;99.90;;;;;;5071929;28;20484;-71
2023/01/05 11:42:58;;;;;;;23.80;3.15;;;10.30;99.90;;;;;;5071768;28;20054;-71
2023/01/05 11:45:28;;;;;;;23.08;3.67;;;10.30;99.90;;;;;;5071919;28;20542;-72
2023/01/05 11:48:02;;;;;;;18.00;3.13;;;10.40;99.90;;;;;;5071507;28;20040;-72
2023/01/05 11:50:44;;;;;;;21.92;3.35;;;10.40;99.90;;;;;;5071596;28;20409;-72
2023/01/05 11:53:25;;;;;;;24.80;5.22;;;10.40;99.90;;;;;;5071598;28;20040;-72
2023/01/05 11:56:20;;;;;;;17.63;3.30;;;10.50;99.90;;;;;;5071607;28;20045;-73
2023/01/05 11:58:47;;;;;;;17.90;3.53;;;10.40;99.90;;;;;;5071482;28;20048;-72
2023/01/05 12:01:35;;;;;;;19.98;3.50;;;10.40;99.90;;;;;;5071538;28;20394;-73
2023/01/05 12:04:09;;;;;;;20.95;3.33;;;10.50;99.90;;;;;;5071383;28;20036;-72
2023/01/05 12:07:00;;;;;;;21.95;3.90;;;10.40;99.90;;;;;;5071710;28;20064;-72
2023/01/05 12:09:32;;;;;;;21.85;3.58;;;10.50;99.90;;;;;;5071498;28;20036;-73
2023/01/05 12:12:47;;;;;;;16.48;2.53;;;10.40;99.90;;;;;;5071745;28;20154;-73
2023/01/05 12:15:36;;;;;;;20.15;3.67;;;10.40;99.90;;;;;;5039215;28;20135;-72
2023/01/05 12:18:38;;;;;;;20.10;3.63;;;10.40;99.90;;;;;;5054829;28;20094;-73
2023/01/05 12:21:21;;;;;;;24.33;4.32;;;10.40;99.90;;;;;;5071656;28;20048;-72
2023/01/05 12:23:59;;;;;;;21.17;4.03;;;10.30;99.90;;;;;;5054574;28;20051;-71
2023/01/05 12:26:32;;;;;;;23.42;3.35;;;10.30;99.90;;;;;;5071299;28;20052;-72
2023/01/05 12:29:16;;;;;;;;;;;10.30;99.90;;;;;;5071640;28;20047;-72
2023/01/05 12:31:50;;;;;;;20.77;3.78;;;10.30;99.90;;;;;;5071241;28;20297;-72
2023/01/05 12:34:42;;;;;;;17.33;3.35;;;10.30;99.90;;;;;;5071137;28;20434;-72
2023/01/05 12:37:37;;;;;;;28.02;4.05;;;10.30;99.90;;;;;;5071292;28;20041;-72
2023/01/05 12:40:15;;;;;;;20.67;4.13;;;10.30;99.90;;;;;;5071556;28;20413;-72
2023/01/05 12:42:59;;;;;;;20.50;3.17;;;10.30;99.90;;;;;;5073971;28;20056;-72
2023/01/05 12:45:57;;;;;;;19.25;3.10;;;10.30;99.90;;;;;;5074971;28;20033;-74
2023/01/05 12:48:51;;;;;;;21.88;3.80;;;10.40;99.90;;;;;;5057808;28;20485;-72
2023/01/05 12:51:49;;;;;;;24.00;3.97;;;10.30;99.90;;;;;;5075144;28;20036;-72
2023/01/05 12:54:30;;;;;;;22.55;3.58;;;10.40;99.90;;;;;;5074949;28;20044;-72
2023/01/05 12:57:24;;;;;;;33.17;4.20;;;10.30;99.90;;;;;;5074400;28;20115;-72
2023/01/05 13:00:05;;;;;;;21.63;3.88;;;10.30;99.90;;;;;;5072950;28;20055;-72
2023/01/05 13:02:36;;;;;;;24.27;3.80;;;10.30;99.90;;;;;;5057547;28;20615;-72
2023/01/05 13:05:15;;;;;;;24.08;4.38;;;10.30;99.90;;;;;;5074315;28;20119;-72
2023/01/05 13:07:52;;;;;;;31.73;4.60;;;10.40;99.90;;;;;;5057512;28;20040;-73
2023/01/05 13:10:32;;;;;;;25.40;4.00;;;10.30;99.90;;;;;;5074526;28;20079;-73
2023/01/05 13:13:18;;;;;;;23.73;4.28;;;10.40;99.90;;;;;;5074405;28;20105;-73
2023/01/05 13:15:52;;;;;;;25.63;4.57;;;10.40;99.90;;;;;;5074122;28;20493;-72
2023/01/05 13:18:22;;;;;;;27.63;4.20;;;10.40;99.90;;;;;;5073958;28;20086;-75
2023/01/05 13:20:55;;;;;;;25.45;4.68;;;10.40;99.90;;;;;;5074208;28;20501;-76
2023/01/05 13:23:24;;;;;;;;;;;10.50;99.90;;;;;;5074485;28;20040;-73
2023/01/05 13:26:06;;;;;;;20.40;3.28;;;10.40;99.90;;;;;;5057201;28;19978;-73
2023/01/05 13:28:32;;;;;;;21.20;4.18;;;10.40;99.90;;;;;;5074209;28;20043;-72
2023/01/05 13:31:16;;;;;;;20.38;3.75;;;10.40;99.90;;;;;;5073849;28;20040;-72
2023/01/05 13:33:48;;;;;;;23.48;3.70;;;10.40;99.90;;;;;;5073951;28;20459;-72
2023/01/05 13:36:53;;;;;;;27.33;4.53;;;10.40;99.90;;;;;;5073707;28;20043;-71